createdAt,value
2018-03-22T00:02:16.917Z,46.47
2018-03-22T00:04:44.555Z,42.15
2018-03-22T00:07:12.156Z,41.35
2018-03-22T00:09:39.757Z,46.92
2018-03-22T00:12:07.385Z,43.40
2018-03-22T00:14:35.758Z,47.20
2018-03-22T00:17:03.389Z,48.33
2018-03-22T00:19:30.981Z,43.05
2018-03-22T00:21:58.574Z,55.47
2018-03-22T00:24:26.196Z,44.35
2018-03-22T00:26:53.832Z,50.40
2018-03-22T00:29:21.448Z,54.55
2018-03-22T00:31:49.821Z,43.28
2018-03-22T00:34:18.183Z,48.35
2018-03-22T00:36:45.816Z,44.85
2018-03-22T00:39:13.420Z,45.20
2018-03-22T00:41:41.039Z,55.65
2018-03-22T00:44:08.667Z,44.67
2018-03-22T00:46:36.271Z,43.78
2018-03-22T00:49:03.860Z,44.65
2018-03-22T00:51:31.472Z,48.40
2018-03-22T00:53:59.054Z,41.97
2018-03-22T00:56:26.678Z,39.80
2018-03-22T00:58:54.274Z,43.10
2018-03-22T01:01:21.858Z,42.95
2018-03-22T01:03:49.492Z,38.50
2018-03-22T01:06:17.477Z,42.17
2018-03-22T01:08:45.116Z,39.70
2018-03-22T01:11:12.711Z,39.40
2018-03-22T01:13:40.337Z,35.35
2018-03-22T01:16:07.976Z,31.85
2018-03-22T01:18:35.604Z,29.67
2018-03-22T01:21:03.212Z,33.17
2018-03-22T01:23:30.800Z,33.20
2018-03-22T01:25:58.405Z,36.85
2018-03-22T01:28:26.792Z,36.92
2018-03-22T01:30:55.160Z,35.53
2018-03-22T01:33:22.782Z,35.40
2018-03-22T01:35:50.383Z,34.00
2018-03-22T01:38:18.760Z,34.03
2018-03-22T01:40:46.407Z,26.60
2018-03-22T01:43:14.006Z,32.13
2018-03-22T01:45:42.382Z,28.80
2018-03-22T01:48:10.745Z,26.15
2018-03-22T01:50:39.117Z,27.98
2018-03-22T01:53:13.127Z,25.48
2018-03-22T01:55:40.861Z,31.77
2018-03-22T01:58:08.452Z,27.42
2018-03-22T02:00:36.054Z,36.38
2018-03-22T02:03:03.639Z,40.28
2018-03-22T02:05:31.322Z,24.08
2018-03-22T02:07:58.951Z,24.95
2018-03-22T02:10:26.560Z,27.70
2018-03-22T02:12:54.188Z,29.40
2018-03-22T02:15:21.813Z,26.98
2018-03-22T02:17:50.168Z,27.87
2018-03-22T02:20:17.776Z,30.00
2018-03-22T02:22:45.372Z,33.28
2018-03-22T02:25:12.974Z,34.72
2018-03-22T02:27:41.336Z,31.20
2018-03-22T02:30:10.446Z,27.92
2018-03-22T02:32:38.049Z,26.98
2018-03-22T02:35:05.648Z,25.60
2018-03-22T02:37:33.253Z,26.27
2018-03-22T02:40:00.838Z,28.23
2018-03-22T02:42:28.471Z,36.13
2018-03-22T02:44:56.839Z,29.27
2018-03-22T02:47:25.214Z,26.30
2018-03-22T02:49:53.567Z,30.55
2018-03-22T02:52:21.198Z,30.20
2018-03-22T02:54:48.801Z,31.10
2018-03-22T02:57:16.395Z,32.42
2018-03-22T02:59:44.819Z,28.12
2018-03-22T03:02:12.436Z,32.72
2018-03-22T03:04:40.822Z,31.77
2018-03-22T03:07:08.419Z,25.62
2018-03-22T03:09:36.033Z,28.65
2018-03-22T03:12:04.399Z,33.72
2018-03-22T03:14:32.026Z,28.33
2018-03-22T03:16:59.624Z,32.05
2018-03-22T03:19:28.021Z,34.13
2018-03-22T03:21:56.400Z,32.63
2018-03-22T03:24:24.781Z,31.62
2018-03-22T03:26:53.142Z,31.95
2018-03-22T03:29:20.732Z,28.35
2018-03-22T03:31:48.371Z,39.33
2018-03-22T03:34:15.962Z,34.67
2018-03-22T03:36:43.592Z,30.10
2018-03-22T03:39:11.194Z,34.55
2018-03-22T03:41:38.797Z,32.05
2018-03-22T03:44:06.417Z,33.65
2018-03-22T03:46:34.012Z,35.40
2018-03-22T03:49:01.628Z,33.50
2018-03-22T03:51:29.221Z,31.60
2018-03-22T03:53:56.826Z,31.45
2018-03-22T03:56:25.186Z,36.80
2018-03-22T03:58:59.322Z,33.08
2018-03-22T04:01:26.932Z,35.42
2018-03-22T04:03:54.541Z,39.92
2018-03-22T04:06:22.140Z,37.28
2018-03-22T04:08:49.740Z,38.40
2018-03-22T04:11:17.329Z,42.53
2018-03-22T04:13:45.729Z,40.60
2018-03-22T04:16:14.086Z,36.83
2018-03-22T04:18:41.698Z,43.22
2018-03-22T04:21:09.295Z,43.20
2018-03-22T04:23:37.655Z,51.33
2018-03-22T04:26:05.248Z,46.55
2018-03-22T04:28:32.856Z,44.08
2018-03-22T04:31:00.466Z,47.70
2018-03-22T04:33:28.063Z,51.00
2018-03-22T04:35:55.690Z,49.33
2018-03-22T04:38:23.325Z,50.47
2018-03-22T04:40:50.908Z,51.85
2018-03-22T04:43:18.496Z,55.38
2018-03-22T04:45:46.853Z,56.72
2018-03-22T04:48:14.481Z,53.08
2018-03-22T04:50:42.065Z,51.30
2018-03-22T04:53:09.654Z,55.47
2018-03-22T04:55:43.938Z,51.47
2018-03-22T04:58:11.542Z,57.55
2018-03-22T05:00:39.930Z,55.15
2018-03-22T05:03:07.535Z,47.55
2018-03-22T05:05:35.191Z,53.10
2018-03-22T05:08:02.797Z,51.37
2018-03-22T05:10:31.165Z,51.83
2018-03-22T05:12:58.895Z,51.90
2018-03-22T05:15:26.488Z,54.63
2018-03-22T05:17:54.085Z,50.47
2018-03-22T05:20:22.441Z,49.95
2018-03-22T05:22:50.026Z,51.75
2018-03-22T05:25:17.669Z,50.67
2018-03-22T05:27:46.033Z,57.38
2018-03-22T05:30:13.624Z,54.05
2018-03-22T05:32:42.027Z,51.40
2018-03-22T05:35:09.595Z,43.63
2018-03-22T05:37:55.341Z,46.45
2018-03-22T05:40:23.732Z,57.80
2018-03-22T05:42:51.314Z,57.15
2018-03-22T05:45:18.911Z,51.92
2018-03-22T05:47:46.525Z,55.47
2018-03-22T05:50:14.109Z,51.78
2018-03-22T05:52:41.719Z,49.53
2018-03-22T05:55:10.070Z,57.85
2018-03-22T05:57:37.648Z,53.87
2018-03-22T06:00:05.241Z,53.25
2018-03-22T06:02:33.624Z,52.47
2018-03-22T06:05:01.966Z,58.45
2018-03-22T06:07:29.551Z,48.53
2018-03-22T06:09:57.138Z,51.72
2018-03-22T06:12:24.714Z,57.15
2018-03-22T06:14:52.308Z,60.20
2018-03-22T06:17:19.885Z,48.65
2018-03-22T06:19:47.465Z,51.60
2018-03-22T06:22:15.805Z,57.47
2018-03-22T06:24:43.418Z,44.10
2018-03-22T06:27:11.004Z,49.13
2018-03-22T06:29:38.606Z,50.88
2018-03-22T06:32:06.209Z,57.40
2018-03-22T06:34:33.798Z,49.50
2018-03-22T06:37:01.432Z,44.63
2018-03-22T06:39:29.022Z,44.70
2018-03-22T06:41:56.614Z,45.22
2018-03-22T06:44:24.215Z,48.55
2018-03-22T06:46:51.904Z,42.78
2018-03-22T06:49:19.535Z,43.28
2018-03-22T06:51:47.132Z,41.45
2018-03-22T06:54:14.723Z,39.92
2018-03-22T06:56:42.305Z,43.95
2018-03-22T06:59:10.681Z,43.47
2018-03-22T07:01:39.046Z,42.45
2018-03-22T07:04:06.673Z,43.60
2018-03-22T07:06:34.278Z,38.72
2018-03-22T07:09:02.626Z,39.60
2018-03-22T07:11:30.239Z,37.78
2018-03-22T07:13:57.811Z,35.33
2018-03-22T07:16:25.396Z,34.58
2018-03-22T07:18:53.005Z,32.80
2018-03-22T07:21:21.374Z,36.83
2018-03-22T07:23:49.042Z,28.17
2018-03-22T07:26:17.390Z,30.05
2018-03-22T07:28:44.967Z,29.00
2018-03-22T07:31:12.558Z,26.05
2018-03-22T07:33:40.937Z,23.90
2018-03-22T07:36:09.334Z,27.80
2018-03-22T07:38:36.949Z,22.48
2018-03-22T07:41:04.544Z,21.02
2018-03-22T07:43:38.642Z,25.80
2018-03-22T07:46:06.991Z,28.07
2018-03-22T07:48:34.577Z,21.60
2018-03-22T07:51:02.164Z,21.05
2018-03-22T07:53:29.805Z,22.23
2018-03-22T07:55:58.146Z,23.90
2018-03-22T07:58:25.737Z,21.87
2018-03-22T08:00:53.320Z,19.37
2018-03-22T08:03:21.676Z,21.55
2018-03-22T08:05:49.370Z,20.17
2018-03-22T08:08:18.432Z,24.58
2018-03-22T08:10:47.518Z,20.52
2018-03-22T08:13:15.096Z,19.85
2018-03-22T08:15:42.716Z,23.12
2018-03-22T08:18:10.301Z,23.48
2018-03-22T08:20:37.915Z,21.08
2018-03-22T08:23:05.514Z,25.67
2018-03-22T08:25:33.086Z,24.05
2018-03-22T08:28:00.705Z,24.87
2018-03-22T08:30:28.280Z,25.08
2018-03-22T08:32:55.869Z,27.30
2018-03-22T08:35:23.453Z,25.80
2018-03-22T08:37:51.027Z,24.05
2018-03-22T08:40:19.405Z,27.15
2018-03-22T08:42:47.753Z,24.52
2018-03-22T08:45:15.360Z,25.77
2018-03-22T08:47:42.994Z,27.37
2018-03-22T08:50:10.613Z,24.97
2018-03-22T08:52:38.202Z,26.13
2018-03-22T08:55:05.789Z,29.63
2018-03-22T08:57:34.135Z,25.15
2018-03-22T09:00:01.708Z,25.00
2018-03-22T09:02:29.325Z,25.12
2018-03-22T09:04:56.899Z,24.30
2018-03-22T09:07:24.478Z,25.30
2018-03-22T09:09:52.051Z,23.65
2018-03-22T09:12:19.807Z,25.27
2018-03-22T09:14:47.454Z,23.35
2018-03-22T09:17:15.092Z,28.45
2018-03-22T09:19:42.707Z,23.58
2018-03-22T09:22:10.284Z,23.13
2018-03-22T09:24:38.656Z,25.77
2018-03-22T09:27:06.226Z,22.67
2018-03-22T09:29:34.575Z,20.75
2018-03-22T09:32:02.196Z,23.00
2018-03-22T09:34:29.785Z,23.47
2018-03-22T09:36:57.396Z,21.77
2018-03-22T09:39:25.750Z,23.40
2018-03-22T09:41:54.187Z,23.33
2018-03-22T09:44:21.793Z,23.38
2018-03-22T09:46:49.406Z,24.00
2018-03-22T09:49:17.023Z,23.53
2018-03-22T09:51:44.689Z,22.05
2018-03-22T09:54:12.266Z,22.33
2018-03-22T09:56:40.624Z,24.97
2018-03-22T09:59:08.222Z,21.50
2018-03-22T10:01:35.887Z,21.40
2018-03-22T10:04:04.224Z,21.40
2018-03-22T10:06:31.787Z,20.97
2018-03-22T10:08:59.358Z,23.67
2018-03-22T10:11:26.972Z,22.77
2018-03-22T10:13:54.556Z,18.40
2018-03-22T10:16:22.172Z,20.07
2018-03-22T10:18:49.916Z,18.70
2018-03-22T10:21:17.501Z,19.23
2018-03-22T10:23:45.120Z,20.23
2018-03-22T10:26:12.734Z,17.83
2018-03-22T10:28:40.492Z,19.33
2018-03-22T10:31:13.061Z,18.10
2018-03-22T10:33:40.728Z,19.03
2018-03-22T10:36:08.391Z,20.30
2018-03-22T10:38:36.047Z,19.90
2018-03-22T10:41:04.506Z,19.23
2018-03-22T10:43:32.122Z,19.07
2018-03-22T10:45:59.716Z,17.70
2018-03-22T10:48:27.339Z,20.60
2018-03-22T10:50:56.027Z,18.43
2018-03-22T10:53:23.840Z,16.37
2018-03-22T10:55:51.465Z,19.37
2018-03-22T10:58:19.969Z,19.17
2018-03-22T11:00:53.258Z,18.43
2018-03-22T11:03:33.627Z,19.50
2018-03-22T11:06:01.274Z,18.87
2018-03-22T11:08:28.873Z,19.83
2018-03-22T11:13:48.000Z,17.80
2018-03-22T11:16:16.022Z,20.53
2018-03-22T11:18:44.726Z,15.57
2018-03-22T11:21:12.328Z,20.30
2018-03-22T11:23:39.962Z,22.67
2018-03-22T11:26:09.236Z,21.83
2018-03-22T11:28:42.301Z,22.40
2018-03-22T11:31:10.625Z,20.13
2018-03-22T11:33:39.361Z,19.13
2018-03-22T11:36:07.104Z,20.80
2018-03-22T11:38:45.640Z,22.20
2018-03-22T11:41:14.940Z,21.90
2018-03-22T11:43:42.598Z,17.90
2018-03-22T11:46:11.597Z,19.33
2018-03-22T11:48:39.808Z,22.83
2018-03-22T11:51:08.047Z,19.90
2018-03-22T11:53:35.734Z,19.27
2018-03-22T11:56:03.332Z,21.37
2018-03-22T11:58:31.756Z,21.60
2018-03-22T12:00:59.381Z,18.10
2018-03-22T12:03:27.044Z,17.77
2018-03-22T12:05:55.433Z,22.97
2018-03-22T12:08:23.047Z,64.63
2018-03-22T12:10:50.677Z,107.10
2018-03-22T12:13:18.260Z,54.00
2018-03-22T12:15:45.842Z,22.30
2018-03-22T12:18:13.451Z,65.93
2018-03-22T12:20:41.146Z,56.23
2018-03-22T12:23:08.762Z,64.73
2018-03-22T12:25:37.393Z,30.57
2018-03-22T12:28:04.970Z,75.23
2018-03-22T12:30:32.577Z,20.27
2018-03-22T12:33:00.174Z,41.97
2018-03-22T12:35:27.787Z,32.70
2018-03-22T12:37:56.136Z,20.90
2018-03-22T12:40:23.723Z,27.50
2018-03-22T12:42:52.071Z,19.43
2018-03-22T12:45:19.669Z,19.50
2018-03-22T12:47:48.027Z,19.33
2018-03-22T12:50:15.612Z,22.70
2018-03-22T12:52:43.970Z,22.73
2018-03-22T12:55:11.595Z,21.30
2018-03-22T12:57:39.195Z,19.13
2018-03-22T13:00:06.826Z,20.40
2018-03-22T13:02:34.371Z,20.50
2018-03-22T13:05:01.978Z,19.50
2018-03-22T13:07:29.591Z,26.30
2018-03-22T13:09:57.188Z,19.80
2018-03-22T13:12:24.775Z,22.60
2018-03-22T13:14:53.142Z,21.37
2018-03-22T13:17:20.721Z,18.50
2018-03-22T13:19:49.079Z,26.50
2018-03-22T13:22:16.704Z,23.27
2018-03-22T13:24:44.297Z,19.40
2018-03-22T13:27:11.884Z,19.60
2018-03-22T13:29:40.253Z,24.73
2018-03-22T13:32:07.839Z,19.17
2018-03-22T13:37:26.962Z,20.00
2018-03-22T13:39:56.219Z,22.23
2018-03-22T13:42:24.567Z,21.60
2018-03-22T13:44:52.182Z,21.73
2018-03-22T13:47:19.856Z,21.10
2018-03-22T13:49:47.529Z,23.23
2018-03-22T13:52:15.142Z,19.63
2018-03-22T13:54:43.510Z,18.80
2018-03-22T13:57:11.127Z,22.10
2018-03-22T13:59:38.764Z,23.20
2018-03-22T14:02:06.367Z,21.70
2018-03-22T14:04:33.962Z,21.23
2018-03-22T14:07:01.575Z,18.00
2018-03-22T14:09:29.166Z,23.50
2018-03-22T14:11:56.938Z,31.97
2018-03-22T14:14:24.605Z,20.83
2018-03-22T14:16:52.186Z,19.93
2018-03-22T14:19:20.617Z,27.53
2018-03-22T14:21:48.274Z,22.00
2018-03-22T14:24:15.899Z,19.37
2018-03-22T14:26:44.256Z,21.93
2018-03-22T14:29:11.878Z,21.70
2018-03-22T14:31:39.459Z,16.23
2018-03-22T14:34:07.036Z,20.37
2018-03-22T14:36:34.648Z,18.63
2018-03-22T14:39:02.238Z,19.17
2018-03-22T14:41:29.874Z,18.33
2018-03-22T14:43:57.551Z,22.57
2018-03-22T14:46:25.156Z,18.17
2018-03-22T14:48:52.771Z,18.87
2018-03-22T14:51:20.437Z,21.27
2018-03-22T14:53:49.125Z,17.17
2018-03-22T14:56:16.786Z,15.77
2018-03-22T14:58:44.449Z,15.90
2018-03-22T15:01:12.054Z,17.07
2018-03-22T15:03:39.652Z,14.57
2018-03-22T15:06:07.264Z,17.30
2018-03-22T15:08:34.870Z,15.07
2018-03-22T15:11:02.500Z,15.53
2018-03-22T15:13:30.113Z,13.10
2018-03-22T15:15:57.705Z,12.93
2018-03-22T15:18:25.351Z,14.67
2018-03-22T15:20:53.111Z,12.87
2018-03-22T15:23:20.729Z,12.60
2018-03-22T15:25:49.264Z,12.50
2018-03-22T15:28:17.024Z,11.87
2018-03-22T15:30:45.046Z,12.20
2018-03-22T15:33:14.897Z,9.20
2018-03-22T15:35:42.498Z,9.13
2018-03-22T15:38:10.104Z,8.57
2018-03-22T15:40:37.752Z,7.90
2018-03-22T15:43:06.128Z,8.07
2018-03-22T15:45:34.553Z,8.57
2018-03-22T15:48:02.177Z,6.77
2018-03-22T15:50:30.514Z,9.23
2018-03-22T15:52:58.151Z,7.77
2018-03-22T15:55:25.744Z,7.00
2018-03-22T15:57:53.415Z,8.60
2018-03-22T16:00:21.157Z,8.20
2018-03-22T16:02:48.748Z,7.73
2018-03-22T16:05:39.365Z,9.70
2018-03-22T16:08:07.698Z,8.37
2018-03-22T16:10:35.267Z,8.50
2018-03-22T16:13:02.846Z,7.57
2018-03-22T16:15:30.419Z,8.70
2018-03-22T16:17:58.106Z,8.17
2018-03-22T16:20:25.701Z,11.60
2018-03-22T16:22:53.279Z,7.87
2018-03-22T16:25:20.856Z,8.10
2018-03-22T16:30:42.685Z,7.60
2018-03-22T16:33:10.268Z,9.20
2018-03-22T16:35:38.653Z,6.87
2018-03-22T16:38:06.254Z,12.43
2018-03-22T16:40:33.996Z,7.90
2018-03-22T16:43:02.319Z,8.17
2018-03-22T16:45:29.911Z,6.40
2018-03-22T16:47:57.551Z,6.50
2018-03-22T16:50:25.129Z,8.60
2018-03-22T16:52:52.770Z,12.50
2018-03-22T16:55:20.356Z,8.33
2018-03-22T16:57:47.924Z,13.50
2018-03-22T17:00:15.505Z,8.87
2018-03-22T17:02:43.922Z,8.00
2018-03-22T17:05:11.491Z,11.57
2018-03-22T17:07:39.069Z,8.93
2018-03-22T17:10:06.713Z,7.90
2018-03-22T17:12:34.301Z,7.70
2018-03-22T17:15:01.907Z,8.33
2018-03-22T17:17:29.484Z,7.00
2018-03-22T17:19:57.069Z,10.47
2018-03-22T17:22:24.738Z,8.27
2018-03-22T17:24:52.308Z,10.00
2018-03-22T17:27:19.895Z,8.43
2018-03-22T17:29:48.248Z,7.13
2018-03-22T17:32:15.835Z,8.00
2018-03-22T17:34:44.202Z,6.20
2018-03-22T17:37:11.807Z,9.00
2018-03-22T17:39:39.427Z,6.30
2018-03-22T17:42:07.013Z,7.77
2018-03-22T17:44:34.621Z,7.83
2018-03-22T17:47:02.213Z,6.67
2018-03-22T17:49:29.847Z,6.70
2018-03-22T17:51:57.430Z,5.53
2018-03-22T17:54:25.005Z,6.37
2018-03-22T17:56:53.448Z,7.73
2018-03-22T17:59:21.028Z,8.83
2018-03-22T18:01:48.646Z,8.10
2018-03-22T18:04:16.239Z,11.03
2018-03-22T18:06:43.812Z,8.17
2018-03-22T18:09:11.441Z,7.20
2018-03-22T18:11:39.013Z,8.10
2018-03-22T18:14:06.623Z,10.47
2018-03-22T18:16:35.001Z,7.60
2018-03-22T18:19:03.354Z,11.20
2018-03-22T18:21:30.933Z,8.70
2018-03-22T18:23:59.272Z,11.60
2018-03-22T18:26:26.845Z,11.83
2018-03-22T18:28:54.479Z,11.97
2018-03-22T18:31:22.066Z,12.90
2018-03-22T18:33:49.657Z,15.40
2018-03-22T18:36:17.220Z,14.20
2018-03-22T18:38:45.565Z,15.80
2018-03-22T18:41:13.181Z,15.80
2018-03-22T18:43:41.859Z,13.40
2018-03-22T18:46:10.244Z,14.20
2018-03-22T18:48:37.845Z,14.73
2018-03-22T18:51:05.432Z,14.87
2018-03-22T18:53:33.021Z,15.43
2018-03-22T18:56:01.375Z,16.20
2018-03-22T18:58:28.984Z,12.43
2018-03-22T19:00:56.578Z,14.70
2018-03-22T19:03:24.190Z,13.73
2018-03-22T19:05:52.562Z,13.80
2018-03-22T19:08:20.908Z,11.77
2018-03-22T19:10:48.495Z,11.13
2018-03-22T19:13:16.075Z,11.30
2018-03-22T19:15:44.450Z,12.30
2018-03-22T19:18:12.828Z,13.10
2018-03-22T19:20:41.178Z,13.93
2018-03-22T19:23:08.811Z,12.90
2018-03-22T19:25:36.504Z,14.23
2018-03-22T19:28:04.075Z,13.23
2018-03-22T19:30:31.687Z,12.20
2018-03-22T19:32:59.279Z,11.70
2018-03-22T19:35:26.924Z,10.80
2018-03-22T19:37:54.503Z,12.93
2018-03-22T19:40:22.233Z,16.90
2018-03-22T19:42:49.844Z,13.73
2018-03-22T19:45:17.462Z,11.00
2018-03-22T19:47:45.208Z,13.20
2018-03-22T19:50:13.786Z,10.80
2018-03-22T19:52:42.134Z,10.80
2018-03-22T19:55:09.724Z,15.03
2018-03-22T19:57:37.342Z,11.23
2018-03-22T20:00:04.937Z,13.37
2018-03-22T20:02:32.539Z,10.33
2018-03-22T20:05:00.137Z,13.47
2018-03-22T20:07:27.753Z,13.80
2018-03-22T20:09:55.334Z,11.80
2018-03-22T20:12:22.927Z,13.90
2018-03-22T20:14:51.298Z,12.77
2018-03-22T20:17:18.881Z,13.70
2018-03-22T20:19:46.510Z,13.60
2018-03-22T20:22:14.140Z,16.20
2018-03-22T20:24:41.754Z,14.03
2018-03-22T20:27:09.398Z,16.33
2018-03-22T20:29:37.195Z,15.67
2018-03-22T20:32:05.562Z,14.90
2018-03-22T20:34:33.159Z,16.03
2018-03-22T20:37:00.782Z,18.70
2018-03-22T20:39:28.391Z,15.60
2018-03-22T20:41:56.016Z,15.27
2018-03-22T20:44:23.679Z,17.20
2018-03-22T20:46:51.279Z,20.57
2018-03-22T20:49:18.892Z,21.20
2018-03-22T20:51:46.592Z,15.77
2018-03-22T20:54:14.953Z,20.10
2018-03-22T20:56:42.609Z,18.33
2018-03-22T20:59:10.192Z,17.77
2018-03-22T21:01:37.793Z,18.13
2018-03-22T21:04:05.406Z,24.70
2018-03-22T21:06:33.752Z,19.53
2018-03-22T21:09:01.325Z,20.23
2018-03-22T21:11:28.975Z,19.77
2018-03-22T21:13:56.555Z,17.20
2018-03-22T21:16:24.391Z,19.53
2018-03-22T21:18:51.962Z,21.23
2018-03-22T21:21:19.527Z,19.53
2018-03-22T21:23:47.126Z,20.27
2018-03-22T21:26:15.481Z,17.83
2018-03-22T21:31:33.664Z,23.00
2018-03-22T21:34:01.283Z,19.83
2018-03-22T21:36:28.952Z,20.70
2018-03-22T21:38:56.570Z,21.37
2018-03-22T21:41:24.267Z,20.83
2018-03-22T21:44:03.938Z,20.60
2018-03-22T21:46:31.686Z,19.60
2018-03-22T21:48:59.438Z,21.93
2018-03-22T21:51:27.071Z,20.00
2018-03-22T21:53:55.450Z,22.03
2018-03-22T21:59:16.241Z,21.23
2018-03-22T22:01:44.783Z,18.67
2018-03-22T22:04:12.507Z,18.20
2018-03-22T22:06:41.212Z,18.73
2018-03-22T22:09:09.171Z,20.83
2018-03-22T22:11:37.830Z,21.20
2018-03-22T22:14:05.968Z,16.57
2018-03-22T22:16:34.013Z,21.63
2018-03-22T22:19:02.802Z,21.17
2018-03-22T22:21:31.966Z,20.80
2018-03-22T22:24:00.125Z,18.90
2018-03-22T22:26:27.991Z,21.50
2018-03-22T22:28:55.976Z,18.77
2018-03-22T22:31:23.830Z,20.13
2018-03-22T22:33:51.802Z,19.47
2018-03-22T22:36:21.545Z,19.27
2018-03-22T22:38:49.895Z,15.63
2018-03-22T22:41:17.504Z,17.87
2018-03-22T22:43:45.086Z,18.97
2018-03-22T22:46:12.704Z,19.83
2018-03-22T22:48:41.076Z,15.43
2018-03-22T22:51:09.452Z,17.10
2018-03-22T22:53:37.045Z,18.50
2018-03-22T22:56:04.687Z,19.87
2018-03-22T22:58:33.052Z,15.90
2018-03-22T23:01:00.629Z,19.20
2018-03-22T23:03:28.208Z,18.23
2018-03-22T23:05:56.562Z,16.77
2018-03-22T23:08:24.236Z,19.90
2018-03-22T23:10:51.881Z,16.00
2018-03-22T23:13:20.041Z,19.97
2018-03-22T23:15:47.636Z,19.43
2018-03-22T23:18:16.026Z,16.90
2018-03-22T23:20:44.480Z,20.23
2018-03-22T23:23:12.116Z,22.73
2018-03-22T23:25:39.758Z,19.93
2018-03-22T23:28:08.132Z,18.07
2018-03-22T23:30:35.870Z,19.33
2018-03-22T23:33:05.026Z,19.13
2018-03-22T23:35:33.673Z,18.47
2018-03-22T23:38:01.345Z,18.80
2018-03-22T23:40:28.950Z,18.97
2018-03-22T23:42:56.595Z,14.83
2018-03-22T23:45:24.344Z,16.50
2018-03-22T23:47:52.071Z,13.10
2018-03-22T23:50:20.053Z,17.03
2018-03-22T23:52:48.856Z,13.57
2018-03-22T23:55:16.952Z,14.10
2018-03-22T23:57:45.223Z,14.57
